createdAt,value
2019-01-06T00:01:49.586Z,10.40
2019-01-06T00:04:39.250Z,10.30
2019-01-06T00:08:06.539Z,10.40
2019-01-06T00:11:01.825Z,10.20
2019-01-06T00:13:49.623Z,10.20
2019-01-06T00:16:37.773Z,10.20
2019-01-06T00:19:25.553Z,10.20
2019-01-06T00:22:22.239Z,10.20
2019-01-06T00:25:14.447Z,10.10
2019-01-06T00:28:14.876Z,10.10
2019-01-06T00:31:03.478Z,10.10
2019-01-06T00:33:59.005Z,10.00
2019-01-06T00:36:49.049Z,10.00
2019-01-06T00:39:38.582Z,10.00
2019-01-06T00:42:18.372Z,9.90
2019-01-06T00:45:22.641Z,9.80
2019-01-06T00:48:10.895Z,9.80
2019-01-06T00:51:09.254Z,9.80
2019-01-06T00:54:07.500Z,9.80
2019-01-06T00:56:55.427Z,9.70
2019-01-06T00:59:43.721Z,9.60
2019-01-06T01:02:31.855Z,9.60
2019-01-06T01:05:19.941Z,9.60
2019-01-06T01:08:21.647Z,9.60
2019-01-06T01:11:16.868Z,9.60
2019-01-06T01:14:24.450Z,9.60
2019-01-06T01:17:11.052Z,9.70
2019-01-06T01:20:15.464Z,9.70
2019-01-06T01:23:07.756Z,9.70
2019-01-06T01:26:03.128Z,9.70
2019-01-06T01:28:51.040Z,9.70
2019-01-06T01:31:40.402Z,9.70
2019-01-06T01:34:45.140Z,9.70
2019-01-06T01:37:39.386Z,9.70
2019-01-06T01:40:26.392Z,9.70
2019-01-06T01:43:14.586Z,9.80
2019-01-06T01:46:02.931Z,9.70
2019-01-06T01:48:55.566Z,9.70
2019-01-06T01:51:45.287Z,9.70
2019-01-06T01:54:40.729Z,9.80
2019-01-06T01:57:38.923Z,9.80
2019-01-06T02:00:43.980Z,9.80
2019-01-06T02:03:33.429Z,9.70
2019-01-06T02:06:21.530Z,9.70
2019-01-06T02:09:02.437Z,9.70
2019-01-06T02:12:00.687Z,9.70
2019-01-06T02:14:50.006Z,9.70
2019-01-06T02:17:37.975Z,9.70
2019-01-06T02:20:30.151Z,9.70
2019-01-06T02:23:19.640Z,9.70
2019-01-06T02:26:08.798Z,9.60
2019-01-06T02:29:01.333Z,9.60
2019-01-06T02:31:49.551Z,9.60
2019-01-06T02:34:38.882Z,9.60
2019-01-06T02:37:27.120Z,9.60
2019-01-06T02:40:22.508Z,9.60
2019-01-06T02:43:17.662Z,9.60
2019-01-06T02:46:05.610Z,9.60
2019-01-06T02:48:53.613Z,9.50
2019-01-06T02:51:41.688Z,9.50
2019-01-06T02:54:46.367Z,9.50
2019-01-06T02:57:44.783Z,9.50
2019-01-06T03:00:40.216Z,9.50
2019-01-06T03:03:28.496Z,9.50
2019-01-06T03:06:23.931Z,9.40
2019-01-06T03:09:06.334Z,9.40
2019-01-06T03:11:55.672Z,9.40
2019-01-06T03:14:42.559Z,9.40
2019-01-06T03:17:32.833Z,9.40
2019-01-06T03:20:28.203Z,9.40
2019-01-06T03:23:23.351Z,9.40
2019-01-06T03:26:11.518Z,9.40
2019-01-06T03:28:59.641Z,9.40
2019-01-06T03:31:47.990Z,9.30
2019-01-06T03:34:49.396Z,9.30
2019-01-06T03:37:37.364Z,9.30
2019-01-06T03:40:26.897Z,9.30
2019-01-06T03:43:13.471Z,9.30
2019-01-06T03:46:08.809Z,9.30
2019-01-06T03:49:07.117Z,9.30
2019-01-06T03:52:02.843Z,9.30
2019-01-06T03:55:10.399Z,9.30
2019-01-06T03:57:59.725Z,9.30
2019-01-06T04:00:54.153Z,9.30
2019-01-06T04:03:37.796Z,9.30
2019-01-06T04:06:18.551Z,9.30
2019-01-06T04:09:11.084Z,9.30
2019-01-06T04:12:18.578Z,9.30
2019-01-06T04:15:06.667Z,9.30
2019-01-06T04:17:51.927Z,9.30
2019-01-06T04:20:40.161Z,9.30
2019-01-06T04:23:28.182Z,9.30
2019-01-06T04:26:16.506Z,9.30
2019-01-06T04:29:22.413Z,9.20
2019-01-06T04:32:17.903Z,9.20
2019-01-06T04:35:03.268Z,9.20
2019-01-06T04:38:17.474Z,9.30
2019-01-06T04:41:05.563Z,9.20
2019-01-06T04:43:53.903Z,9.20
2019-01-06T04:46:43.251Z,9.20
2019-01-06T04:49:38.566Z,9.20
2019-01-06T04:52:26.828Z,9.20
2019-01-06T04:55:19.234Z,9.20
2019-01-06T04:58:07.256Z,9.20
2019-01-06T05:00:53.077Z,9.10
2019-01-06T05:03:41.395Z,9.20
2019-01-06T05:06:36.135Z,9.10
2019-01-06T05:09:39.226Z,9.10
2019-01-06T05:12:37.717Z,9.10
2019-01-06T05:15:23.156Z,9.10
2019-01-06T05:18:30.668Z,9.20
2019-01-06T05:21:18.757Z,9.10
2019-01-06T05:24:19.905Z,9.10
2019-01-06T05:27:09.555Z,9.10
2019-01-06T05:29:57.658Z,9.10
2019-01-06T05:33:02.403Z,9.10
2019-01-06T05:35:51.767Z,9.10
2019-01-06T05:38:53.478Z,9.10
2019-01-06T05:41:41.547Z,9.00
2019-01-06T05:44:30.954Z,9.00
2019-01-06T05:47:19.152Z,9.00
2019-01-06T05:50:08.501Z,9.00
2019-01-06T05:52:56.482Z,9.00
2019-01-06T05:55:38.001Z,9.00
2019-01-06T05:58:27.360Z,9.00
2019-01-06T06:01:11.968Z,9.00
2019-01-06T06:04:04.166Z,9.10
2019-01-06T06:06:52.460Z,9.00
2019-01-06T06:09:51.103Z,9.00
2019-01-06T06:12:41.735Z,9.00
2019-01-06T06:15:38.515Z,9.00
2019-01-06T06:18:37.468Z,9.00
2019-01-06T06:21:33.358Z,8.90
2019-01-06T06:24:21.494Z,8.90
2019-01-06T06:27:20.199Z,8.90
2019-01-06T06:30:12.646Z,8.90
2019-01-06T06:33:02.570Z,9.00
2019-01-06T06:35:51.112Z,9.00
2019-01-06T06:38:58.636Z,9.00
2019-01-06T06:42:00.343Z,9.00
2019-01-06T06:44:48.170Z,9.00
2019-01-06T06:47:43.387Z,8.90
2019-01-06T06:50:48.159Z,8.90
2019-01-06T06:53:37.592Z,8.90
2019-01-06T06:56:26.079Z,8.90
2019-01-06T06:59:10.386Z,8.90
2019-01-06T07:03:25.986Z,8.90
2019-01-06T07:06:21.360Z,8.90
2019-01-06T07:09:13.670Z,8.90
2019-01-06T07:12:06.039Z,8.90
2019-01-06T07:14:58.174Z,8.90
2019-01-06T07:18:09.309Z,8.90
2019-01-06T07:21:08.197Z,8.90
2019-01-06T07:24:06.988Z,8.90
2019-01-06T07:26:55.326Z,8.90
2019-01-06T07:29:43.428Z,8.90
2019-01-06T07:32:31.545Z,8.80
2019-01-06T07:35:23.955Z,8.80
2019-01-06T07:38:25.450Z,8.90
2019-01-06T07:41:13.712Z,8.90
2019-01-06T07:44:02.046Z,8.90
2019-01-06T07:46:50.192Z,8.90
2019-01-06T07:49:37.110Z,8.90
2019-01-06T07:52:14.323Z,8.90
2019-01-06T07:55:05.657Z,8.90
2019-01-06T07:57:52.229Z,8.90
2019-01-06T08:00:50.331Z,8.90
2019-01-06T08:03:42.474Z,8.80
2019-01-06T08:06:39.821Z,8.90
2019-01-06T08:09:41.515Z,8.90
2019-01-06T08:12:29.443Z,8.90
2019-01-06T08:15:17.715Z,8.90
2019-01-06T08:18:13.206Z,8.90
2019-01-06T08:21:02.661Z,8.90
2019-01-06T08:23:50.670Z,8.90
2019-01-06T08:26:39.023Z,8.90
2019-01-06T08:29:27.058Z,8.90
2019-01-06T08:32:15.495Z,8.90
2019-01-06T08:35:03.649Z,8.90
2019-01-06T08:37:51.751Z,8.90
2019-01-06T08:40:41.189Z,8.90
2019-01-06T08:43:39.716Z,8.90
2019-01-06T08:46:34.989Z,8.90
2019-01-06T08:49:29.587Z,8.90
2019-01-06T08:52:20.504Z,9.00
2019-01-06T08:55:13.264Z,9.00
2019-01-06T08:57:58.831Z,9.00
2019-01-06T09:00:46.988Z,9.00
2019-01-06T09:03:59.679Z,9.00
2019-01-06T09:06:49.528Z,8.90
2019-01-06T09:09:48.162Z,9.00
2019-01-06T09:12:43.296Z,9.00
2019-01-06T09:15:46.641Z,9.00
2019-01-06T09:18:34.781Z,9.00
2019-01-06T09:21:22.848Z,9.00
2019-01-06T09:24:12.797Z,9.00
2019-01-06T09:27:08.022Z,8.90
2019-01-06T09:29:56.249Z,8.90
2019-01-06T09:33:00.902Z,8.90
2019-01-06T09:35:50.839Z,8.90
2019-01-06T09:38:50.025Z,8.90
2019-01-06T09:41:51.741Z,8.90
2019-01-06T09:44:40.075Z,9.00
2019-01-06T09:47:32.698Z,9.00
2019-01-06T09:50:20.970Z,9.00
2019-01-06T09:53:09.139Z,9.00
2019-01-06T09:56:01.689Z,9.00
2019-01-06T09:59:00.706Z,9.10
2019-01-06T10:01:48.844Z,9.10
2019-01-06T10:04:53.770Z,9.10
2019-01-06T10:07:43.183Z,9.10
2019-01-06T10:10:35.409Z,9.10
2019-01-06T10:13:25.415Z,9.10
2019-01-06T10:16:12.338Z,9.10
2019-01-06T10:19:00.777Z,9.20
2019-01-06T10:22:05.431Z,9.20
2019-01-06T10:25:00.704Z,9.10
2019-01-06T10:27:47.222Z,9.20
2019-01-06T10:30:35.424Z,9.20
2019-01-06T10:33:23.481Z,9.20
2019-01-06T10:36:08.381Z,9.10
2019-01-06T10:38:56.593Z,9.20
2019-01-06T10:41:49.285Z,9.20
2019-01-06T10:44:37.602Z,9.20
2019-01-06T10:47:29.178Z,9.20
2019-01-06T10:50:33.264Z,9.20
2019-01-06T10:53:22.920Z,9.20
2019-01-06T10:56:09.303Z,9.20
2019-01-06T10:59:04.993Z,9.30
2019-01-06T11:01:53.210Z,9.30
2019-01-06T11:04:48.757Z,9.30
2019-01-06T11:07:36.889Z,9.30
2019-01-06T11:10:25.826Z,9.30
2019-01-06T11:13:16.641Z,9.30
2019-01-06T11:16:06.220Z,9.30
2019-01-06T11:18:54.880Z,9.30
2019-01-06T11:21:47.578Z,9.30
2019-01-06T11:24:34.747Z,9.30
2019-01-06T11:27:24.156Z,9.30
2019-01-06T11:30:12.108Z,9.30
2019-01-06T11:33:03.788Z,9.30
2019-01-06T11:36:11.544Z,9.30
2019-01-06T11:39:12.867Z,9.30
2019-01-06T11:42:08.367Z,9.30
2019-01-06T11:44:56.923Z,9.30
2019-01-06T11:47:52.717Z,9.30
2019-01-06T11:50:57.542Z,9.30
2019-01-06T11:53:47.723Z,9.30
2019-01-06T11:56:43.605Z,9.30
2019-01-06T11:59:41.912Z,9.30
2019-01-06T12:02:29.978Z,9.30
2019-01-06T12:05:31.805Z,9.30
2019-01-06T12:08:29.198Z,9.30
2019-01-06T12:11:21.701Z,9.30
2019-01-06T12:14:10.247Z,9.30
2019-01-06T12:16:58.506Z,9.30
2019-01-06T12:20:06.383Z,9.30
2019-01-06T12:22:54.764Z,9.30
2019-01-06T12:25:47.103Z,9.30
2019-01-06T12:28:39.666Z,9.30
2019-01-06T12:31:47.213Z,9.30
2019-01-06T12:34:40.155Z,9.30
2019-01-06T12:37:25.198Z,9.40
2019-01-06T12:40:18.415Z,9.40
2019-01-06T12:43:06.576Z,9.40
2019-01-06T12:45:55.994Z,9.40
2019-01-06T12:48:45.651Z,9.40
2019-01-06T12:51:33.718Z,9.40
2019-01-06T12:54:23.210Z,9.50
2019-01-06T12:57:15.652Z,9.50
2019-01-06T13:00:04.093Z,9.50
2019-01-06T13:03:05.503Z,9.50
2019-01-06T13:05:59.463Z,9.40
2019-01-06T13:08:48.821Z,9.50
2019-01-06T13:11:44.356Z,9.50
2019-01-06T13:14:39.182Z,9.50
2019-01-06T13:17:40.859Z,9.50
2019-01-06T13:20:31.032Z,9.50
2019-01-06T13:23:23.308Z,9.50
2019-01-06T13:26:18.829Z,9.50
2019-01-06T13:29:14.439Z,9.50
2019-01-06T13:32:03.901Z,9.50
2019-01-06T13:34:52.146Z,9.50
2019-01-06T13:37:51.097Z,9.50
2019-01-06T13:40:39.218Z,9.50
2019-01-06T13:43:28.716Z,9.50
2019-01-06T13:46:17.310Z,9.50
2019-01-06T13:49:18.838Z,9.50
2019-01-06T13:52:07.135Z,9.50
2019-01-06T13:55:01.830Z,9.50
2019-01-06T13:57:54.213Z,9.50
2019-01-06T14:01:00.123Z,9.50
2019-01-06T14:03:48.326Z,9.50
2019-01-06T14:06:39.272Z,9.50
2019-01-06T14:09:27.469Z,9.60
2019-01-06T14:12:16.987Z,9.50
2019-01-06T14:15:04.851Z,9.60
2019-01-06T14:17:54.157Z,9.60
2019-01-06T14:20:42.254Z,9.60
2019-01-06T14:23:34.175Z,9.60
2019-01-06T14:26:23.674Z,9.60
2019-01-06T14:29:14.506Z,9.60
2019-01-06T14:32:19.777Z,9.60
2019-01-06T14:35:08.165Z,9.60
2019-01-06T14:38:03.364Z,9.60
2019-01-06T14:41:11.266Z,9.70
2019-01-06T14:44:03.573Z,9.70
2019-01-06T14:46:54.629Z,9.70
2019-01-06T14:49:49.928Z,9.70
2019-01-06T14:52:44.113Z,9.70
2019-01-06T14:55:32.591Z,9.70
2019-01-06T14:58:24.516Z,9.70
2019-01-06T15:01:12.801Z,9.70
2019-01-06T15:04:01.176Z,9.70
2019-01-06T15:07:09.054Z,9.70
2019-01-06T15:10:11.059Z,9.70
2019-01-06T15:13:07.088Z,9.70
2019-01-06T15:15:55.329Z,9.70
2019-01-06T15:18:49.159Z,9.70
2019-01-06T15:21:45.144Z,9.70
2019-01-06T15:24:43.550Z,9.70
2019-01-06T15:27:36.454Z,9.80
2019-01-06T15:30:29.617Z,9.80
2019-01-06T15:33:22.209Z,9.80
2019-01-06T15:36:17.009Z,9.80
2019-01-06T15:39:17.345Z,9.80
2019-01-06T15:42:24.593Z,9.70
2019-01-06T15:45:17.875Z,9.70
2019-01-06T15:48:06.255Z,9.70
2019-01-06T15:50:58.847Z,9.70
2019-01-06T15:53:51.888Z,9.70
2019-01-06T15:56:41.075Z,9.70
2019-01-06T15:59:30.994Z,9.70
2019-01-06T16:02:23.934Z,9.70
2019-01-06T16:05:12.327Z,9.70
2019-01-06T16:08:11.835Z,9.70
2019-01-06T16:11:04.557Z,9.70
2019-01-06T16:14:03.304Z,9.70
2019-01-06T16:16:55.159Z,9.70
2019-01-06T16:19:52.288Z,9.80
2019-01-06T16:22:48.399Z,9.70
2019-01-06T16:25:37.510Z,9.80
2019-01-06T16:28:31.337Z,9.70
2019-01-06T16:31:27.277Z,9.70
2019-01-06T16:34:16.813Z,9.70
2019-01-06T16:37:17.158Z,9.70
2019-01-06T16:40:16.025Z,9.70
2019-01-06T16:42:56.920Z,9.70
2019-01-06T16:46:04.854Z,9.70
2019-01-06T16:48:52.989Z,9.70
2019-01-06T16:52:00.437Z,9.70
2019-01-06T16:55:04.547Z,9.70
2019-01-06T16:57:52.818Z,9.70
2019-01-06T17:00:45.311Z,9.70
2019-01-06T17:03:29.520Z,9.70
2019-01-06T17:06:14.465Z,9.70
2019-01-06T17:09:04.002Z,9.70
2019-01-06T17:11:59.475Z,9.70
2019-01-06T17:14:41.616Z,9.70
2019-01-06T17:17:35.326Z,9.70
2019-01-06T17:20:28.133Z,9.70
2019-01-06T17:23:17.876Z,9.80
2019-01-06T17:26:06.170Z,9.80
2019-01-06T17:28:54.965Z,9.70
2019-01-06T17:31:47.554Z,9.70
2019-01-06T17:34:40.578Z,9.70
2019-01-06T17:37:38.109Z,9.70
2019-01-06T17:40:21.478Z,9.70
2019-01-06T17:43:09.683Z,9.70
2019-01-06T17:46:10.727Z,9.70
2019-01-06T17:49:08.701Z,9.70
2019-01-06T17:51:58.258Z,9.70
2019-01-06T17:55:00.088Z,9.70
2019-01-06T17:57:48.199Z,9.70
2019-01-06T18:00:46.632Z,9.70
2019-01-06T18:03:40.696Z,9.70
2019-01-06T18:06:36.041Z,9.80
2019-01-06T18:09:57.312Z,9.70
2019-01-06T18:12:45.423Z,9.70
2019-01-06T18:15:47.748Z,9.70
2019-01-06T18:18:36.299Z,9.70
2019-01-06T18:21:22.085Z,9.70
2019-01-06T18:24:10.167Z,9.70
2019-01-06T18:26:58.603Z,9.70
2019-01-06T18:29:59.726Z,9.70
2019-01-06T18:32:49.323Z,9.70
2019-01-06T18:35:37.900Z,9.70
2019-01-06T18:38:24.502Z,9.70
2019-01-06T18:41:19.769Z,9.70
2019-01-06T18:44:08.178Z,9.70
2019-01-06T18:46:56.536Z,9.70
2019-01-06T18:49:49.265Z,9.70
2019-01-06T18:52:28.594Z,9.70
2019-01-06T18:55:27.338Z,9.70
2019-01-06T18:58:17.172Z,9.70
2019-01-06T19:01:09.982Z,9.60
2019-01-06T19:04:13.874Z,9.60
2019-01-06T19:07:12.343Z,9.60
2019-01-06T19:10:02.019Z,9.60
2019-01-06T19:12:48.806Z,9.60
2019-01-06T19:15:45.704Z,9.60
2019-01-06T19:18:35.276Z,9.60
2019-01-06T19:21:33.973Z,9.60
2019-01-06T19:24:22.367Z,9.60
2019-01-06T19:27:10.756Z,9.50
2019-01-06T19:29:59.429Z,9.30
2019-01-06T19:32:49.130Z,9.50
2019-01-06T19:35:53.587Z,9.50
2019-01-06T19:38:51.929Z,9.50
2019-01-06T19:41:50.657Z,9.50
2019-01-06T19:44:39.219Z,9.50
2019-01-06T19:47:30.912Z,9.50
2019-01-06T19:50:20.472Z,9.50
2019-01-06T19:53:07.883Z,9.50
2019-01-06T19:56:09.716Z,9.50
2019-01-06T19:59:02.406Z,9.50
2019-01-06T20:02:06.927Z,9.50
2019-01-06T20:04:58.208Z,9.50
2019-01-06T20:07:50.539Z,9.50
2019-01-06T20:10:38.881Z,9.50
2019-01-06T20:13:28.647Z,9.50
2019-01-06T20:16:30.568Z,9.50
2019-01-06T20:19:34.014Z,9.50
2019-01-06T20:22:22.179Z,9.50
2019-01-06T20:25:11.596Z,9.50
2019-01-06T20:28:00.165Z,9.50
2019-01-06T20:30:52.791Z,9.50
2019-01-06T20:33:54.470Z,9.50
2019-01-06T20:36:42.619Z,9.50
2019-01-06T20:39:31.697Z,9.50
2019-01-06T20:42:19.839Z,9.50
2019-01-06T20:45:18.652Z,9.50
2019-01-06T20:48:08.168Z,9.30
2019-01-06T20:50:49.570Z,9.50
2019-01-06T20:53:45.076Z,9.50
2019-01-06T20:56:37.642Z,9.50
2019-01-06T20:59:32.977Z,9.50
2019-01-06T21:02:34.765Z,9.50
2019-01-06T21:05:27.424Z,9.50
2019-01-06T21:08:26.020Z,9.50
2019-01-06T21:11:11.585Z,9.50
2019-01-06T21:14:19.074Z,9.50
2019-01-06T21:17:27.125Z,9.50
2019-01-06T21:20:16.861Z,9.40
2019-01-06T21:23:12.265Z,9.50
2019-01-06T21:26:04.291Z,9.40
2019-01-06T21:28:47.116Z,9.40
2019-01-06T21:31:43.135Z,9.50
2019-01-06T21:34:36.231Z,9.40
2019-01-06T21:37:31.282Z,9.40
2019-01-06T21:40:32.730Z,9.50
2019-01-06T21:43:22.211Z,9.50
2019-01-06T21:46:17.810Z,9.50
2019-01-06T21:49:06.081Z,9.50
2019-01-06T21:51:48.158Z,9.50
2019-01-06T21:54:55.736Z,9.50
2019-01-06T21:57:45.180Z,9.50
2019-01-06T22:00:37.943Z,9.50
2019-01-06T22:03:26.361Z,9.50
2019-01-06T22:06:14.579Z,9.50
2019-01-06T22:09:12.978Z,9.50
2019-01-06T22:12:01.352Z,9.50
2019-01-06T22:15:08.966Z,9.40
2019-01-06T22:18:01.576Z,9.40
2019-01-06T22:20:56.861Z,9.40
2019-01-06T22:23:49.044Z,9.50
2019-01-06T22:26:53.401Z,9.50
2019-01-06T22:29:52.047Z,9.40
2019-01-06T22:32:39.944Z,9.40
2019-01-06T22:35:29.044Z,9.40
2019-01-06T22:38:17.366Z,9.40
2019-01-06T22:41:06.892Z,9.40
2019-01-06T22:43:57.704Z,9.40
2019-01-06T22:46:59.894Z,9.40
2019-01-06T22:49:49.266Z,9.50
2019-01-06T22:52:44.549Z,9.50
2019-01-06T22:55:32.717Z,9.50
2019-01-06T22:58:28.426Z,9.40
2019-01-06T23:01:16.507Z,9.40
2019-01-06T23:04:09.078Z,9.40
2019-01-06T23:07:07.809Z,9.40
2019-01-06T23:10:03.132Z,9.40
2019-01-06T23:12:49.175Z,9.40
2019-01-06T23:15:37.657Z,9.40
2019-01-06T23:18:27.995Z,9.40
2019-01-06T23:21:20.461Z,9.40
2019-01-06T23:24:10.355Z,9.30
2019-01-06T23:26:58.918Z,9.40
2019-01-06T23:29:50.396Z,9.40
2019-01-06T23:32:38.751Z,9.40
2019-01-06T23:35:37.630Z,9.40
2019-01-06T23:38:30.447Z,9.40
2019-01-06T23:41:18.629Z,9.40
2019-01-06T23:44:20.590Z,9.40
2019-01-06T23:47:15.971Z,9.40
2019-01-06T23:50:04.370Z,9.40
2019-01-06T23:52:52.515Z,9.40
2019-01-06T23:55:41.398Z,9.40
2019-01-06T23:58:30.098Z,9.40
